createdAt,value
2023-05-09T00:01:50.156Z,32.08
2023-05-09T00:06:53.709Z,32.15
2023-05-09T00:11:56.505Z,35.03
2023-05-09T00:16:59.357Z,35.63
2023-05-09T00:22:01.622Z,35.45
2023-05-09T00:27:03.310Z,42.22
2023-05-09T00:32:05.329Z,38.22
2023-05-09T00:37:07.157Z,39.50
2023-05-09T00:42:08.850Z,37.60
2023-05-09T00:47:10.661Z,41.08
2023-05-09T00:52:12.363Z,40.60
2023-05-09T00:57:14.494Z,40.13
2023-05-09T01:02:18.078Z,38.90
2023-05-09T01:07:52.088Z,44.15
2023-05-09T01:13:15.831Z,43.00
2023-05-09T01:18:36.541Z,43.47
2023-05-09T01:23:44.322Z,43.03
2023-05-09T01:29:15.480Z,43.08
2023-05-09T01:34:18.505Z,40.25
2023-05-09T01:39:22.376Z,45.53
2023-05-09T01:44:25.570Z,42.90
2023-05-09T01:49:31.583Z,41.72
2023-05-09T01:54:34.839Z,42.58
2023-05-09T01:59:41.906Z,43.28
2023-05-09T02:04:44.920Z,42.20
2023-05-09T02:09:49.700Z,41.05
2023-05-09T02:14:53.304Z,44.35
2023-05-09T02:19:54.985Z,40.95
2023-05-09T02:24:57.110Z,38.03
2023-05-09T02:30:02.732Z,39.88
2023-05-09T02:35:07.685Z,37.13
2023-05-09T02:40:10.583Z,38.70
2023-05-09T02:45:14.008Z,34.35
2023-05-09T02:50:15.963Z,37.05
2023-05-09T02:55:18.131Z,32.28
2023-05-09T03:00:22.259Z,32.58
2023-05-09T03:05:24.106Z,31.30
2023-05-09T03:10:25.898Z,31.42
2023-05-09T03:15:27.654Z,30.05
2023-05-09T03:20:29.450Z,28.45
2023-05-09T03:25:31.486Z,28.77
2023-05-09T03:30:36.719Z,25.77
2023-05-09T03:35:39.900Z,26.75
2023-05-09T03:40:42.261Z,27.25
2023-05-09T03:45:46.071Z,26.27
2023-05-09T03:50:49.550Z,29.00
2023-05-09T03:55:52.385Z,25.42
2023-05-09T04:00:56.222Z,27.23
2023-05-09T04:06:00.007Z,25.38
2023-05-09T04:11:10.068Z,23.33
2023-05-09T04:16:14.029Z,23.23
2023-05-09T04:21:16.414Z,22.92
2023-05-09T04:26:22.813Z,23.58
2023-05-09T04:31:27.309Z,24.00
2023-05-09T04:36:29.275Z,19.52
2023-05-09T04:41:33.919Z,21.83
2023-05-09T04:46:35.961Z,19.58
2023-05-09T04:51:38.003Z,17.38
2023-05-09T04:56:39.777Z,18.85
2023-05-09T05:01:41.565Z,17.52
2023-05-09T05:06:43.501Z,20.25
2023-05-09T05:11:57.962Z,22.52
2023-05-09T05:17:01.916Z,19.35
2023-05-09T05:22:05.620Z,19.48
2023-05-09T05:27:08.514Z,18.98
2023-05-09T05:32:10.764Z,20.60
2023-05-09T05:37:12.816Z,18.00
2023-05-09T05:42:16.225Z,19.70
2023-05-09T05:47:18.677Z,17.42
2023-05-09T05:52:21.236Z,18.63
2023-05-09T05:57:23.085Z,18.17
2023-05-09T06:02:25.354Z,17.38
2023-05-09T06:07:27.643Z,17.30
2023-05-09T06:12:29.356Z,17.40
2023-05-09T06:17:31.330Z,16.73
2023-05-09T06:22:33.131Z,19.02
2023-05-09T06:27:37.991Z,18.85
2023-05-09T06:32:39.734Z,19.15
2023-05-09T06:37:45.942Z,19.42
2023-05-09T06:42:48.822Z,18.50
2023-05-09T06:47:54.208Z,19.33
2023-05-09T06:52:56.549Z,17.33
2023-05-09T06:57:58.356Z,20.50
2023-05-09T07:03:00.069Z,16.35
2023-05-09T07:08:01.892Z,14.68
2023-05-09T07:13:04.712Z,12.88
2023-05-09T07:18:06.464Z,13.02
2023-05-09T07:23:08.230Z,12.23
2023-05-09T07:28:12.367Z,13.73
2023-05-09T07:33:14.042Z,13.98
2023-05-09T07:38:15.746Z,14.63
2023-05-09T07:43:17.439Z,14.18
2023-05-09T07:48:19.376Z,10.77
2023-05-09T07:53:21.570Z,12.90
2023-05-09T07:58:23.236Z,11.38
2023-05-09T08:03:25.135Z,7.25
2023-05-09T08:08:27.232Z,10.32
2023-05-09T08:13:28.992Z,6.55
2023-05-09T08:18:31.132Z,9.05
2023-05-09T08:23:32.946Z,9.38
2023-05-09T08:28:34.642Z,8.75
2023-05-09T08:33:38.834Z,13.75
2023-05-09T08:38:42.142Z,7.93
2023-05-09T08:43:44.400Z,7.65
2023-05-09T08:48:46.163Z,11.27
2023-05-09T08:53:48.491Z,7.43
2023-05-09T08:58:50.353Z,9.85
2023-05-09T09:03:54.359Z,9.23
2023-05-09T09:08:57.580Z,9.80
2023-05-09T09:14:06.203Z,11.55
2023-05-09T09:19:13.096Z,12.55
2023-05-09T09:24:15.019Z,13.30
2023-05-09T09:29:18.674Z,11.40
2023-05-09T09:34:22.886Z,12.52
2023-05-09T09:39:24.614Z,12.05
2023-05-09T09:44:27.060Z,11.88
2023-05-09T09:49:28.803Z,11.35
2023-05-09T09:54:32.191Z,10.63
2023-05-09T09:59:33.838Z,9.50
2023-05-09T10:04:41.658Z,11.73
2023-05-09T10:09:44.030Z,11.27
2023-05-09T10:14:47.274Z,10.35
2023-05-09T10:19:52.784Z,10.80
2023-05-09T10:25:08.292Z,10.60
2023-05-09T10:30:15.549Z,9.90
2023-05-09T10:35:18.542Z,9.10
2023-05-09T10:40:21.240Z,10.73
2023-05-09T10:45:23.460Z,8.82
2023-05-09T10:50:26.211Z,9.43
2023-05-09T10:55:55.691Z,9.15
2023-05-09T11:01:03.783Z,9.07
2023-05-09T11:06:08.767Z,10.18
2023-05-09T11:11:25.686Z,8.43
2023-05-09T11:16:27.442Z,8.93
2023-05-09T11:21:29.100Z,9.35
2023-05-09T11:26:31.578Z,9.35
2023-05-09T11:31:33.497Z,9.20
2023-05-09T11:36:36.054Z,9.45
2023-05-09T11:41:43.605Z,9.02
2023-05-09T11:46:47.041Z,8.43
2023-05-09T11:51:48.746Z,9.13
2023-05-09T11:56:52.893Z,8.88
2023-05-09T12:01:54.725Z,9.93
2023-05-09T12:06:59.032Z,9.30
2023-05-09T12:12:01.510Z,8.65
2023-05-09T12:17:03.678Z,8.98
2023-05-09T12:22:10.051Z,7.03
2023-05-09T12:27:11.979Z,7.10
2023-05-09T12:32:16.894Z,7.03
2023-05-09T12:37:19.352Z,6.63
2023-05-09T12:42:21.742Z,7.63
2023-05-09T12:47:28.114Z,5.85
2023-05-09T12:52:46.994Z,7.15
2023-05-09T12:58:01.735Z,5.80
2023-05-09T13:03:04.346Z,5.45
2023-05-09T13:08:06.063Z,5.25
2023-05-09T13:13:07.915Z,5.00
2023-05-09T13:18:10.862Z,4.78
2023-05-09T13:23:12.635Z,5.22
2023-05-09T13:28:15.169Z,4.63
2023-05-09T13:33:25.401Z,4.03
2023-05-09T13:38:31.016Z,3.78
2023-05-09T13:43:32.937Z,4.13
2023-05-09T13:48:34.597Z,3.60
2023-05-09T13:53:38.671Z,4.03
2023-05-09T13:58:40.690Z,4.97
2023-05-09T14:03:42.460Z,4.13
2023-05-09T14:08:44.222Z,3.55
2023-05-09T14:13:45.883Z,4.07
2023-05-09T14:18:48.278Z,4.30
2023-05-09T14:23:54.181Z,4.15
2023-05-09T14:28:55.867Z,3.88
2023-05-09T14:34:00.177Z,5.03
2023-05-09T14:39:02.393Z,4.43
2023-05-09T14:44:04.188Z,4.68
2023-05-09T14:49:06.756Z,6.60
2023-05-09T14:54:09.389Z,5.50
2023-05-09T14:59:11.725Z,4.57
2023-05-09T15:04:13.572Z,4.90
2023-05-09T15:09:15.596Z,5.50
2023-05-09T15:14:17.238Z,5.72
2023-05-09T15:19:19.309Z,2.50
2023-05-09T15:24:21.348Z,2.55
2023-05-09T15:29:23.386Z,3.30
2023-05-09T15:34:25.305Z,2.78
2023-05-09T15:39:27.241Z,2.75
2023-05-09T15:44:31.615Z,3.10
2023-05-09T15:49:34.166Z,1.60
2023-05-09T15:54:36.971Z,0.90
2023-05-09T15:59:40.127Z,1.65
2023-05-09T16:04:42.557Z,1.30
2023-05-09T16:09:44.779Z,1.33
2023-05-09T16:14:46.469Z,1.10
2023-05-09T16:19:48.188Z,1.00
2023-05-09T16:24:49.863Z,1.70
2023-05-09T16:29:59.340Z,2.40
2023-05-09T16:35:01.056Z,2.05
2023-05-09T16:40:04.470Z,1.88
2023-05-09T16:45:07.213Z,1.90
2023-05-09T16:50:10.509Z,2.30
2023-05-09T16:55:12.589Z,2.53
2023-05-09T17:00:16.461Z,1.60
2023-05-09T17:05:18.725Z,2.05
2023-05-09T17:10:22.836Z,1.95
2023-05-09T17:15:28.566Z,3.88
2023-05-09T17:20:30.941Z,1.40
2023-05-09T17:25:33.483Z,2.53
2023-05-09T17:30:36.584Z,1.40
2023-05-09T17:35:38.267Z,1.95
2023-05-09T17:40:40.171Z,2.58
2023-05-09T17:45:42.668Z,2.63
2023-05-09T17:50:46.237Z,2.97
2023-05-09T17:55:47.937Z,2.38
2023-05-09T18:00:53.973Z,1.55
2023-05-09T18:05:55.978Z,2.38
2023-05-09T18:10:57.884Z,1.80
2023-05-09T18:16:02.892Z,2.95
2023-05-09T18:21:05.472Z,4.00
2023-05-09T18:26:08.596Z,2.75
2023-05-09T18:31:12.036Z,2.83
2023-05-09T18:36:16.915Z,2.95
2023-05-09T18:41:18.541Z,1.70
2023-05-09T18:46:21.606Z,2.25
2023-05-09T18:51:24.183Z,2.38
2023-05-09T18:56:25.871Z,2.38
2023-05-09T19:01:27.550Z,2.60
2023-05-09T19:06:29.260Z,2.67
2023-05-09T19:11:30.916Z,3.13
2023-05-09T19:16:32.723Z,3.58
2023-05-09T19:21:35.650Z,1.95
2023-05-09T19:26:38.149Z,3.50
2023-05-09T19:31:39.860Z,2.75
2023-05-09T19:36:41.481Z,2.50
2023-05-09T19:41:43.201Z,2.50
2023-05-09T19:46:45.031Z,1.75
2023-05-09T19:51:46.855Z,1.90
2023-05-09T19:56:48.506Z,3.65
2023-05-09T20:01:50.527Z,1.85
2023-05-09T20:06:53.277Z,2.53
2023-05-09T20:11:55.170Z,3.30
2023-05-09T20:16:57.223Z,2.45
2023-05-09T20:22:00.240Z,2.83
2023-05-09T20:27:03.192Z,2.72
2023-05-09T20:32:05.423Z,2.78
2023-05-09T20:37:07.795Z,4.65
2023-05-09T20:42:09.685Z,6.07
2023-05-09T20:47:11.446Z,8.45
2023-05-09T20:52:13.276Z,7.72
2023-05-09T20:57:15.143Z,10.00
2023-05-09T21:02:17.001Z,11.60
2023-05-09T21:07:19.515Z,12.02
2023-05-09T21:12:24.227Z,14.45
2023-05-09T21:17:26.228Z,11.57
2023-05-09T21:22:29.070Z,13.73
2023-05-09T21:27:31.504Z,12.57
2023-05-09T21:32:33.354Z,12.70
2023-05-09T21:37:36.422Z,13.00
2023-05-09T21:42:40.734Z,12.27
2023-05-09T21:47:42.841Z,13.45
2023-05-09T21:52:44.811Z,12.55
2023-05-09T21:57:46.755Z,11.07
2023-05-09T22:02:48.727Z,11.00
2023-05-09T22:07:54.100Z,10.80
2023-05-09T22:12:56.092Z,12.30
2023-05-09T22:17:57.898Z,11.82
2023-05-09T22:22:59.637Z,12.52
2023-05-09T22:28:01.462Z,13.88
2023-05-09T22:33:03.195Z,13.73
2023-05-09T22:38:04.894Z,15.32
2023-05-09T22:43:06.538Z,13.38
2023-05-09T22:48:08.423Z,13.52
2023-05-09T22:53:10.685Z,13.38
2023-05-09T22:58:12.373Z,14.50
2023-05-09T23:03:14.156Z,12.45
2023-05-09T23:08:16.158Z,13.95
2023-05-09T23:13:17.903Z,12.50
2023-05-09T23:18:21.161Z,12.88
2023-05-09T23:23:22.978Z,16.23
2023-05-09T23:28:25.406Z,12.18
2023-05-09T23:33:27.580Z,11.73
2023-05-09T23:38:29.237Z,15.43
2023-05-09T23:43:30.871Z,15.00
2023-05-09T23:48:32.654Z,15.38
2023-05-09T23:53:35.308Z,13.88
2023-05-09T23:58:37.037Z,14.45
